sensor_id;sensor_type;location;lat;lon;timestamp;P1;durP1;ratioP1;P2;durP2;ratioP2
55063;SDS011;40963;52.168;21.296;2023-08-06T00:00:22;36.40;;;13.93;;
55063;SDS011;40963;52.168;21.296;2023-08-06T00:02:48;40.63;;;13.98;;
55063;SDS011;40963;52.168;21.296;2023-08-06T00:05:14;35.75;;;12.55;;
55063;SDS011;40963;52.168;21.296;2023-08-06T00:07:43;29.67;;;13.75;;
55063;SDS011;40963;52.168;21.296;2023-08-06T00:10:12;41.10;;;14.18;;
55063;SDS011;40963;52.168;21.296;2023-08-06T00:12:38;39.60;;;13.25;;
55063;SDS011;40963;52.168;21.296;2023-08-06T00:15:03;32.17;;;13.10;;
55063;SDS011;40963;52.168;21.296;2023-08-06T00:17:29;33.38;;;12.98;;
55063;SDS011;40963;52.168;21.296;2023-08-06T00:19:55;33.25;;;13.23;;
55063;SDS011;40963;52.168;21.296;2023-08-06T00:22:20;35.38;;;14.10;;
55063;SDS011;40963;52.168;21.296;2023-08-06T00:24:46;35.70;;;13.95;;
55063;SDS011;40963;52.168;21.296;2023-08-06T00:27:12;35.70;;;12.70;;
55063;SDS011;40963;52.168;21.296;2023-08-06T00:29:37;27.30;;;13.07;;
55063;SDS011;40963;52.168;21.296;2023-08-06T00:32:03;29.23;;;13.15;;
55063;SDS011;40963;52.168;21.296;2023-08-06T00:34:29;36.53;;;13.00;;
55063;SDS011;40963;52.168;21.296;2023-08-06T00:36:54;32.15;;;13.45;;
55063;SDS011;40963;52.168;21.296;2023-08-06T00:39:20;35.83;;;14.68;;
55063;SDS011;40963;52.168;21.296;2023-08-06T00:41:45;32.00;;;11.85;;
55063;SDS011;40963;52.168;21.296;2023-08-06T00:44:11;27.02;;;12.38;;
55063;SDS011;40963;52.168;21.296;2023-08-06T00:46:36;25.77;;;12.45;;
55063;SDS011;40963;52.168;21.296;2023-08-06T00:49:03;34.88;;;13.07;;
55063;SDS011;40963;52.168;21.296;2023-08-06T00:51:29;38.10;;;13.60;;
55063;SDS011;40963;52.168;21.296;2023-08-06T00:53:55;28.35;;;11.88;;
55063;SDS011;40963;52.168;21.296;2023-08-06T00:56:21;31.48;;;11.90;;
55063;SDS011;40963;52.168;21.296;2023-08-06T00:58:47;29.95;;;12.82;;
55063;SDS011;40963;52.168;21.296;2023-08-06T01:01:12;32.40;;;13.35;;
55063;SDS011;40963;52.168;21.296;2023-08-06T01:03:38;27.73;;;12.35;;
55063;SDS011;40963;52.168;21.296;2023-08-06T01:06:04;42.13;;;13.57;;
55063;SDS011;40963;52.168;21.296;2023-08-06T01:14:13;28.20;;;12.30;;
55063;SDS011;40963;52.168;21.296;2023-08-06T01:16:45;25.58;;;12.10;;
55063;SDS011;40963;52.168;21.296;2023-08-06T01:19:15;27.77;;;12.48;;
55063;SDS011;40963;52.168;21.296;2023-08-06T01:21:42;27.08;;;13.38;;
55063;SDS011;40963;52.168;21.296;2023-08-06T01:24:07;26.83;;;12.30;;
55063;SDS011;40963;52.168;21.296;2023-08-06T01:26:35;29.60;;;13.32;;
55063;SDS011;40963;52.168;21.296;2023-08-06T01:31:36;34.45;;;12.10;;
55063;SDS011;40963;52.168;21.296;2023-08-06T01:34:05;23.40;;;12.40;;
55063;SDS011;40963;52.168;21.296;2023-08-06T01:36:33;23.58;;;12.15;;
55063;SDS011;40963;52.168;21.296;2023-08-06T01:38:59;27.13;;;13.07;;
55063;SDS011;40963;52.168;21.296;2023-08-06T01:41:25;23.50;;;12.05;;
55063;SDS011;40963;52.168;21.296;2023-08-06T01:43:51;26.80;;;12.07;;
55063;SDS011;40963;52.168;21.296;2023-08-06T01:46:16;29.27;;;12.80;;
55063;SDS011;40963;52.168;21.296;2023-08-06T01:48:42;33.45;;;12.57;;
55063;SDS011;40963;52.168;21.296;2023-08-06T01:51:08;23.20;;;11.68;;
55063;SDS011;40963;52.168;21.296;2023-08-06T01:53:34;33.47;;;13.38;;
55063;SDS011;40963;52.168;21.296;2023-08-06T01:55:59;29.58;;;12.45;;
55063;SDS011;40963;52.168;21.296;2023-08-06T01:58:25;22.95;;;12.32;;
55063;SDS011;40963;52.168;21.296;2023-08-06T02:00:50;24.33;;;12.43;;
55063;SDS011;40963;52.168;21.296;2023-08-06T02:03:16;25.40;;;12.65;;
55063;SDS011;40963;52.168;21.296;2023-08-06T02:05:42;20.17;;;11.63;;
55063;SDS011;40963;52.168;21.296;2023-08-06T02:08:07;34.20;;;12.52;;
55063;SDS011;40963;52.168;21.296;2023-08-06T02:10:33;27.05;;;13.02;;
55063;SDS011;40963;52.168;21.296;2023-08-06T02:12:59;27.42;;;12.90;;
55063;SDS011;40963;52.168;21.296;2023-08-06T02:15:25;23.13;;;11.68;;
55063;SDS011;40963;52.168;21.296;2023-08-06T02:17:50;26.95;;;12.75;;
55063;SDS011;40963;52.168;21.296;2023-08-06T02:20:16;25.35;;;12.40;;
55063;SDS011;40963;52.168;21.296;2023-08-06T02:22:41;24.33;;;13.15;;
55063;SDS011;40963;52.168;21.296;2023-08-06T02:25:07;24.35;;;12.55;;
55063;SDS011;40963;52.168;21.296;2023-08-06T02:27:33;23.23;;;12.43;;
55063;SDS011;40963;52.168;21.296;2023-08-06T02:29:59;35.05;;;13.70;;
55063;SDS011;40963;52.168;21.296;2023-08-06T02:32:24;29.13;;;13.82;;
55063;SDS011;40963;52.168;21.296;2023-08-06T02:34:50;29.40;;;13.77;;
55063;SDS011;40963;52.168;21.296;2023-08-06T02:37:15;30.27;;;14.10;;
55063;SDS011;40963;52.168;21.296;2023-08-06T02:39:41;22.98;;;12.32;;
55063;SDS011;40963;52.168;21.296;2023-08-06T02:42:08;23.40;;;12.32;;
55063;SDS011;40963;52.168;21.296;2023-08-06T02:44:34;29.23;;;13.35;;
55063;SDS011;40963;52.168;21.296;2023-08-06T02:47:00;26.27;;;12.50;;
55063;SDS011;40963;52.168;21.296;2023-08-06T02:49:26;26.08;;;12.57;;
55063;SDS011;40963;52.168;21.296;2023-08-06T02:51:51;24.40;;;13.38;;
55063;SDS011;40963;52.168;21.296;2023-08-06T02:54:20;23.55;;;13.15;;
55063;SDS011;40963;52.168;21.296;2023-08-06T02:56:46;25.75;;;13.35;;
55063;SDS011;40963;52.168;21.296;2023-08-06T02:59:12;26.15;;;13.25;;
55063;SDS011;40963;52.168;21.296;2023-08-06T03:01:38;24.75;;;12.35;;
55063;SDS011;40963;52.168;21.296;2023-08-06T03:04:04;30.95;;;12.95;;
55063;SDS011;40963;52.168;21.296;2023-08-06T03:06:30;27.65;;;12.88;;
55063;SDS011;40963;52.168;21.296;2023-08-06T03:08:55;27.30;;;13.02;;
55063;SDS011;40963;52.168;21.296;2023-08-06T03:11:21;33.15;;;13.63;;
55063;SDS011;40963;52.168;21.296;2023-08-06T03:13:47;24.10;;;13.13;;
55063;SDS011;40963;52.168;21.296;2023-08-06T03:16:13;24.38;;;12.85;;
55063;SDS011;40963;52.168;21.296;2023-08-06T03:18:39;28.50;;;13.98;;
55063;SDS011;40963;52.168;21.296;2023-08-06T03:21:04;31.40;;;14.05;;
55063;SDS011;40963;52.168;21.296;2023-08-06T03:23:30;26.17;;;14.82;;
55063;SDS011;40963;52.168;21.296;2023-08-06T03:25:56;30.02;;;14.10;;
55063;SDS011;40963;52.168;21.296;2023-08-06T03:28:25;30.42;;;15.00;;
55063;SDS011;40963;52.168;21.296;2023-08-06T03:30:58;32.88;;;14.82;;
55063;SDS011;40963;52.168;21.296;2023-08-06T03:33:27;33.85;;;15.18;;
55063;SDS011;40963;52.168;21.296;2023-08-06T03:35:54;32.78;;;15.93;;
55063;SDS011;40963;52.168;21.296;2023-08-06T03:38:19;28.95;;;15.10;;
55063;SDS011;40963;52.168;21.296;2023-08-06T03:40:48;33.78;;;15.95;;
55063;SDS011;40963;52.168;21.296;2023-08-06T03:43:14;27.98;;;14.55;;
55063;SDS011;40963;52.168;21.296;2023-08-06T03:45:40;27.90;;;14.65;;
55063;SDS011;40963;52.168;21.296;2023-08-06T03:48:06;32.58;;;15.27;;
55063;SDS011;40963;52.168;21.296;2023-08-06T03:50:32;29.45;;;15.20;;
55063;SDS011;40963;52.168;21.296;2023-08-06T03:52:57;31.95;;;15.02;;
55063;SDS011;40963;52.168;21.296;2023-08-06T03:55:23;27.83;;;14.77;;
55063;SDS011;40963;52.168;21.296;2023-08-06T03:57:49;31.17;;;15.50;;
55063;SDS011;40963;52.168;21.296;2023-08-06T04:00:14;29.65;;;16.60;;
55063;SDS011;40963;52.168;21.296;2023-08-06T04:02:40;27.58;;;15.57;;
55063;SDS011;40963;52.168;21.296;2023-08-06T04:05:06;30.45;;;16.38;;
55063;SDS011;40963;52.168;21.296;2023-08-06T04:07:32;30.30;;;15.57;;
55063;SDS011;40963;52.168;21.296;2023-08-06T04:09:58;27.42;;;16.02;;
55063;SDS011;40963;52.168;21.296;2023-08-06T04:12:24;32.05;;;15.43;;
55063;SDS011;40963;52.168;21.296;2023-08-06T04:14:50;29.83;;;15.52;;
55063;SDS011;40963;52.168;21.296;2023-08-06T04:17:19;31.95;;;16.50;;
55063;SDS011;40963;52.168;21.296;2023-08-06T04:19:49;27.33;;;15.38;;
55063;SDS011;40963;52.168;21.296;2023-08-06T04:22:16;32.92;;;15.55;;
55063;SDS011;40963;52.168;21.296;2023-08-06T04:24:41;29.95;;;15.88;;
55063;SDS011;40963;52.168;21.296;2023-08-06T04:27:08;27.00;;;15.57;;
55063;SDS011;40963;52.168;21.296;2023-08-06T04:29:34;24.95;;;15.13;;
55063;SDS011;40963;52.168;21.296;2023-08-06T04:32:01;28.70;;;15.88;;
55063;SDS011;40963;52.168;21.296;2023-08-06T04:34:26;24.27;;;15.10;;
55063;SDS011;40963;52.168;21.296;2023-08-06T04:36:52;28.00;;;15.55;;
55063;SDS011;40963;52.168;21.296;2023-08-06T04:39:17;28.90;;;14.63;;
55063;SDS011;40963;52.168;21.296;2023-08-06T04:41:43;25.17;;;15.23;;
55063;SDS011;40963;52.168;21.296;2023-08-06T04:44:09;24.63;;;14.35;;
55063;SDS011;40963;52.168;21.296;2023-08-06T04:46:35;23.45;;;14.55;;
55063;SDS011;40963;52.168;21.296;2023-08-06T04:49:00;22.75;;;14.35;;
55063;SDS011;40963;52.168;21.296;2023-08-06T04:51:26;22.75;;;14.52;;
55063;SDS011;40963;52.168;21.296;2023-08-06T04:53:51;20.38;;;13.10;;
55063;SDS011;40963;52.168;21.296;2023-08-06T04:56:17;23.92;;;14.38;;
55063;SDS011;40963;52.168;21.296;2023-08-06T04:58:43;21.38;;;14.02;;
55063;SDS011;40963;52.168;21.296;2023-08-06T05:01:08;19.77;;;14.13;;
55063;SDS011;40963;52.168;21.296;2023-08-06T05:03:34;20.13;;;13.63;;
55063;SDS011;40963;52.168;21.296;2023-08-06T05:06:00;20.02;;;12.57;;
55063;SDS011;40963;52.168;21.296;2023-08-06T05:08:25;17.67;;;12.05;;
55063;SDS011;40963;52.168;21.296;2023-08-06T05:10:51;20.63;;;12.20;;
55063;SDS011;40963;52.168;21.296;2023-08-06T05:13:16;16.75;;;11.98;;
55063;SDS011;40963;52.168;21.296;2023-08-06T05:15:42;14.98;;;11.57;;
55063;SDS011;40963;52.168;21.296;2023-08-06T05:18:10;14.65;;;11.05;;
55063;SDS011;40963;52.168;21.296;2023-08-06T05:20:36;15.82;;;11.07;;
55063;SDS011;40963;52.168;21.296;2023-08-06T05:23:03;17.60;;;10.40;;
55063;SDS011;40963;52.168;21.296;2023-08-06T05:25:29;15.48;;;10.35;;
55063;SDS011;40963;52.168;21.296;2023-08-06T05:27:55;12.65;;;10.10;;
55063;SDS011;40963;52.168;21.296;2023-08-06T05:30:20;14.23;;;9.80;;
55063;SDS011;40963;52.168;21.296;2023-08-06T05:32:46;15.88;;;9.70;;
55063;SDS011;40963;52.168;21.296;2023-08-06T05:35:12;11.57;;;9.15;;
55063;SDS011;40963;52.168;21.296;2023-08-06T05:37:37;14.43;;;9.68;;
55063;SDS011;40963;52.168;21.296;2023-08-06T05:40:03;11.52;;;9.10;;
55063;SDS011;40963;52.168;21.296;2023-08-06T05:42:29;12.95;;;9.75;;
55063;SDS011;40963;52.168;21.296;2023-08-06T05:44:55;12.48;;;9.25;;
55063;SDS011;40963;52.168;21.296;2023-08-06T05:47:21;10.55;;;8.70;;
55063;SDS011;40963;52.168;21.296;2023-08-06T05:49:47;15.40;;;9.07;;
55063;SDS011;40963;52.168;21.296;2023-08-06T05:52:12;15.60;;;9.20;;
55063;SDS011;40963;52.168;21.296;2023-08-06T05:54:38;14.18;;;9.45;;
55063;SDS011;40963;52.168;21.296;2023-08-06T05:57:05;16.15;;;9.52;;
55063;SDS011;40963;52.168;21.296;2023-08-06T05:59:31;13.02;;;9.68;;
55063;SDS011;40963;52.168;21.296;2023-08-06T06:01:57;11.90;;;8.38;;
55063;SDS011;40963;52.168;21.296;2023-08-06T06:04:22;15.63;;;9.10;;
55063;SDS011;40963;52.168;21.296;2023-08-06T06:06:48;17.02;;;9.15;;
55063;SDS011;40963;52.168;21.296;2023-08-06T06:09:14;15.63;;;8.30;;
55063;SDS011;40963;52.168;21.296;2023-08-06T06:11:39;10.73;;;8.25;;
55063;SDS011;40963;52.168;21.296;2023-08-06T06:14:05;11.60;;;8.55;;
55063;SDS011;40963;52.168;21.296;2023-08-06T06:16:30;10.60;;;8.35;;
55063;SDS011;40963;52.168;21.296;2023-08-06T06:18:56;15.27;;;8.00;;
55063;SDS011;40963;52.168;21.296;2023-08-06T06:21:22;12.88;;;8.18;;
55063;SDS011;40963;52.168;21.296;2023-08-06T06:23:49;12.63;;;7.47;;
55063;SDS011;40963;52.168;21.296;2023-08-06T06:26:16;18.30;;;7.30;;
55063;SDS011;40963;52.168;21.296;2023-08-06T06:28:42;9.68;;;7.60;;
55063;SDS011;40963;52.168;21.296;2023-08-06T06:31:07;9.77;;;7.90;;
55063;SDS011;40963;52.168;21.296;2023-08-06T06:33:34;9.60;;;7.88;;
55063;SDS011;40963;52.168;21.296;2023-08-06T06:36:00;13.07;;;7.93;;
55063;SDS011;40963;52.168;21.296;2023-08-06T06:38:28;11.13;;;7.65;;
55063;SDS011;40963;52.168;21.296;2023-08-06T06:40:56;10.35;;;7.95;;
55063;SDS011;40963;52.168;21.296;2023-08-06T06:43:23;13.18;;;7.40;;
55063;SDS011;40963;52.168;21.296;2023-08-06T06:45:52;16.13;;;8.27;;
55063;SDS011;40963;52.168;21.296;2023-08-06T06:48:19;11.13;;;7.40;;
55063;SDS011;40963;52.168;21.296;2023-08-06T06:50:47;11.98;;;7.50;;
55063;SDS011;40963;52.168;21.296;2023-08-06T06:53:13;12.40;;;7.30;;
55063;SDS011;40963;52.168;21.296;2023-08-06T06:55:39;14.82;;;7.20;;
55063;SDS011;40963;52.168;21.296;2023-08-06T06:58:04;15.77;;;7.35;;
55063;SDS011;40963;52.168;21.296;2023-08-06T07:00:30;13.57;;;7.38;;
55063;SDS011;40963;52.168;21.296;2023-08-06T07:02:56;10.70;;;7.03;;
55063;SDS011;40963;52.168;21.296;2023-08-06T07:05:21;9.70;;;7.53;;
55063;SDS011;40963;52.168;21.296;2023-08-06T07:07:47;20.08;;;7.60;;
55063;SDS011;40963;52.168;21.296;2023-08-06T07:10:13;12.82;;;6.70;;
55063;SDS011;40963;52.168;21.296;2023-08-06T07:12:38;7.82;;;6.70;;
55063;SDS011;40963;52.168;21.296;2023-08-06T07:15:05;9.15;;;6.40;;
55063;SDS011;40963;52.168;21.296;2023-08-06T07:17:31;10.18;;;6.72;;
55063;SDS011;40963;52.168;21.296;2023-08-06T07:19:57;10.85;;;6.60;;
55063;SDS011;40963;52.168;21.296;2023-08-06T07:22:22;14.38;;;6.90;;
55063;SDS011;40963;52.168;21.296;2023-08-06T07:24:48;11.48;;;6.38;;
55063;SDS011;40963;52.168;21.296;2023-08-06T07:27:13;11.02;;;6.60;;
55063;SDS011;40963;52.168;21.296;2023-08-06T07:29:39;10.82;;;7.20;;
55063;SDS011;40963;52.168;21.296;2023-08-06T07:32:06;11.10;;;6.07;;
55063;SDS011;40963;52.168;21.296;2023-08-06T07:34:32;7.90;;;6.50;;
55063;SDS011;40963;52.168;21.296;2023-08-06T07:36:57;13.30;;;7.07;;
55063;SDS011;40963;52.168;21.296;2023-08-06T07:39:23;11.43;;;7.05;;
55063;SDS011;40963;52.168;21.296;2023-08-06T07:41:49;9.52;;;6.80;;
55063;SDS011;40963;52.168;21.296;2023-08-06T07:44:14;11.52;;;6.88;;
55063;SDS011;40963;52.168;21.296;2023-08-06T07:46:40;13.80;;;6.70;;
55063;SDS011;40963;52.168;21.296;2023-08-06T07:49:06;9.55;;;6.43;;
55063;SDS011;40963;52.168;21.296;2023-08-06T07:51:32;6.90;;;6.25;;
55063;SDS011;40963;52.168;21.296;2023-08-06T07:53:57;6.75;;;5.65;;
55063;SDS011;40963;52.168;21.296;2023-08-06T07:56:23;12.32;;;6.43;;
55063;SDS011;40963;52.168;21.296;2023-08-06T07:58:48;9.75;;;6.22;;
55063;SDS011;40963;52.168;21.296;2023-08-06T08:01:14;8.20;;;5.80;;
55063;SDS011;40963;52.168;21.296;2023-08-06T08:03:40;13.40;;;6.13;;
55063;SDS011;40963;52.168;21.296;2023-08-06T08:06:05;9.48;;;6.22;;
55063;SDS011;40963;52.168;21.296;2023-08-06T08:08:31;6.93;;;6.00;;
55063;SDS011;40963;52.168;21.296;2023-08-06T08:10:57;11.02;;;5.97;;
55063;SDS011;40963;52.168;21.296;2023-08-06T08:13:24;8.68;;;6.07;;
55063;SDS011;40963;52.168;21.296;2023-08-06T08:15:49;9.27;;;6.47;;
55063;SDS011;40963;52.168;21.296;2023-08-06T08:18:15;12.98;;;6.22;;
55063;SDS011;40963;52.168;21.296;2023-08-06T08:20:41;9.90;;;5.63;;
55063;SDS011;40963;52.168;21.296;2023-08-06T08:23:06;9.48;;;5.30;;
55063;SDS011;40963;52.168;21.296;2023-08-06T08:25:32;8.70;;;5.70;;
55063;SDS011;40963;52.168;21.296;2023-08-06T08:27:59;9.30;;;6.25;;
55063;SDS011;40963;52.168;21.296;2023-08-06T08:30:24;7.53;;;5.97;;
55063;SDS011;40963;52.168;21.296;2023-08-06T08:32:50;8.02;;;6.00;;
55063;SDS011;40963;52.168;21.296;2023-08-06T08:35:17;9.88;;;6.03;;
55063;SDS011;40963;52.168;21.296;2023-08-06T08:37:42;12.57;;;6.05;;
55063;SDS011;40963;52.168;21.296;2023-08-06T08:40:09;7.50;;;6.00;;
55063;SDS011;40963;52.168;21.296;2023-08-06T08:42:35;15.27;;;5.63;;
55063;SDS011;40963;52.168;21.296;2023-08-06T08:45:02;14.85;;;5.93;;
55063;SDS011;40963;52.168;21.296;2023-08-06T08:47:29;6.63;;;5.90;;
55063;SDS011;40963;52.168;21.296;2023-08-06T08:49:57;10.82;;;6.00;;
55063;SDS011;40963;52.168;21.296;2023-08-06T08:52:25;7.93;;;5.63;;
55063;SDS011;40963;52.168;21.296;2023-08-06T08:54:55;6.93;;;5.63;;
55063;SDS011;40963;52.168;21.296;2023-08-06T08:57:21;7.07;;;5.75;;
55063;SDS011;40963;52.168;21.296;2023-08-06T08:59:46;10.02;;;5.40;;
55063;SDS011;40963;52.168;21.296;2023-08-06T09:02:13;7.93;;;6.13;;
55063;SDS011;40963;52.168;21.296;2023-08-06T09:04:40;14.20;;;5.97;;
55063;SDS011;40963;52.168;21.296;2023-08-06T09:07:08;15.57;;;5.90;;
55063;SDS011;40963;52.168;21.296;2023-08-06T09:09:38;9.40;;;5.75;;
55063;SDS011;40963;52.168;21.296;2023-08-06T09:12:15;9.50;;;5.40;;
55063;SDS011;40963;52.168;21.296;2023-08-06T09:14:42;7.97;;;5.60;;
55063;SDS011;40963;52.168;21.296;2023-08-06T09:17:08;11.85;;;5.47;;
55063;SDS011;40963;52.168;21.296;2023-08-06T09:19:35;8.35;;;5.20;;
55063;SDS011;40963;52.168;21.296;2023-08-06T09:22:01;9.70;;;5.60;;
55063;SDS011;40963;52.168;21.296;2023-08-06T09:24:27;9.30;;;5.30;;
55063;SDS011;40963;52.168;21.296;2023-08-06T09:26:52;5.50;;;4.93;;
55063;SDS011;40963;52.168;21.296;2023-08-06T09:29:19;9.52;;;5.20;;
55063;SDS011;40963;52.168;21.296;2023-08-06T09:34:17;9.15;;;5.13;;
55063;SDS011;40963;52.168;21.296;2023-08-06T09:36:54;5.40;;;4.90;;
55063;SDS011;40963;52.168;21.296;2023-08-06T09:39:21;7.30;;;5.30;;
55063;SDS011;40963;52.168;21.296;2023-08-06T09:41:52;8.43;;;4.82;;
55063;SDS011;40963;52.168;21.296;2023-08-06T09:44:22;5.80;;;5.00;;
55063;SDS011;40963;52.168;21.296;2023-08-06T09:46:49;7.78;;;4.90;;
55063;SDS011;40963;52.168;21.296;2023-08-06T09:49:17;8.77;;;6.40;;
55063;SDS011;40963;52.168;21.296;2023-08-06T09:51:44;10.40;;;5.10;;
55063;SDS011;40963;52.168;21.296;2023-08-06T09:54:13;15.38;;;4.93;;
55063;SDS011;40963;52.168;21.296;2023-08-06T09:56:41;23.70;;;6.47;;
55063;SDS011;40963;52.168;21.296;2023-08-06T09:59:07;10.82;;;4.70;;
55063;SDS011;40963;52.168;21.296;2023-08-06T10:01:34;6.05;;;5.40;;
55063;SDS011;40963;52.168;21.296;2023-08-06T10:04:00;12.15;;;4.55;;
55063;SDS011;40963;52.168;21.296;2023-08-06T10:06:28;8.38;;;4.82;;
55063;SDS011;40963;52.168;21.296;2023-08-06T10:08:54;7.25;;;4.85;;
55063;SDS011;40963;52.168;21.296;2023-08-06T10:11:21;7.70;;;4.63;;
55063;SDS011;40963;52.168;21.296;2023-08-06T10:13:49;5.05;;;4.53;;
55063;SDS011;40963;52.168;21.296;2023-08-06T10:16:19;7.88;;;4.53;;
55063;SDS011;40963;52.168;21.296;2023-08-06T10:18:45;5.20;;;4.70;;
55063;SDS011;40963;52.168;21.296;2023-08-06T10:21:13;13.65;;;4.30;;
55063;SDS011;40963;52.168;21.296;2023-08-06T10:23:40;9.05;;;4.60;;
55063;SDS011;40963;52.168;21.296;2023-08-06T10:26:06;7.93;;;4.20;;
55063;SDS011;40963;52.168;21.296;2023-08-06T10:28:38;9.55;;;4.82;;
55063;SDS011;40963;52.168;21.296;2023-08-06T10:31:04;6.97;;;4.30;;
55063;SDS011;40963;52.168;21.296;2023-08-06T10:33:43;6.80;;;4.68;;
55063;SDS011;40963;52.168;21.296;2023-08-06T10:36:10;5.63;;;4.90;;
55063;SDS011;40963;52.168;21.296;2023-08-06T10:38:46;4.80;;;4.35;;
55063;SDS011;40963;52.168;21.296;2023-08-06T10:41:22;6.43;;;4.40;;
55063;SDS011;40963;52.168;21.296;2023-08-06T10:44:06;6.00;;;4.45;;
55063;SDS011;40963;52.168;21.296;2023-08-06T10:46:33;7.20;;;4.22;;
55063;SDS011;40963;52.168;21.296;2023-08-06T10:48:58;10.95;;;4.68;;
55063;SDS011;40963;52.168;21.296;2023-08-06T10:51:24;7.35;;;4.35;;
55063;SDS011;40963;52.168;21.296;2023-08-06T10:53:51;4.88;;;4.47;;
55063;SDS011;40963;52.168;21.296;2023-08-06T10:56:17;10.65;;;4.50;;
55063;SDS011;40963;52.168;21.296;2023-08-06T10:58:48;7.45;;;4.25;;
55063;SDS011;40963;52.168;21.296;2023-08-06T11:01:15;6.68;;;3.92;;
55063;SDS011;40963;52.168;21.296;2023-08-06T11:03:41;5.25;;;4.50;;
55063;SDS011;40963;52.168;21.296;2023-08-06T11:06:08;6.50;;;4.40;;
55063;SDS011;40963;52.168;21.296;2023-08-06T11:08:35;7.13;;;4.43;;
55063;SDS011;40963;52.168;21.296;2023-08-06T11:11:11;9.15;;;4.70;;
55063;SDS011;40963;52.168;21.296;2023-08-06T11:13:41;13.77;;;6.00;;
55063;SDS011;40963;52.168;21.296;2023-08-06T11:16:08;4.22;;;3.83;;
55063;SDS011;40963;52.168;21.296;2023-08-06T11:18:34;7.60;;;4.75;;
55063;SDS011;40963;52.168;21.296;2023-08-06T11:21:00;5.20;;;3.88;;
55063;SDS011;40963;52.168;21.296;2023-08-06T11:23:27;5.03;;;4.20;;
55063;SDS011;40963;52.168;21.296;2023-08-06T11:25:56;6.03;;;4.45;;
55063;SDS011;40963;52.168;21.296;2023-08-06T11:28:22;7.40;;;3.95;;
55063;SDS011;40963;52.168;21.296;2023-08-06T11:30:48;6.60;;;4.43;;
55063;SDS011;40963;52.168;21.296;2023-08-06T11:33:17;5.25;;;3.97;;
55063;SDS011;40963;52.168;21.296;2023-08-06T11:35:47;5.68;;;4.20;;
55063;SDS011;40963;52.168;21.296;2023-08-06T11:38:13;7.70;;;4.45;;
55063;SDS011;40963;52.168;21.296;2023-08-06T11:40:39;4.90;;;4.07;;
55063;SDS011;40963;52.168;21.296;2023-08-06T11:43:05;4.32;;;4.03;;
55063;SDS011;40963;52.168;21.296;2023-08-06T11:45:31;7.80;;;4.00;;
55063;SDS011;40963;52.168;21.296;2023-08-06T11:48:00;12.50;;;4.32;;
55063;SDS011;40963;52.168;21.296;2023-08-06T11:50:26;9.43;;;4.38;;
55063;SDS011;40963;52.168;21.296;2023-08-06T11:52:53;9.38;;;4.70;;
55063;SDS011;40963;52.168;21.296;2023-08-06T11:55:22;4.55;;;4.15;;
55063;SDS011;40963;52.168;21.296;2023-08-06T11:57:49;10.02;;;4.47;;
55063;SDS011;40963;52.168;21.296;2023-08-06T12:00:15;4.50;;;3.92;;
55063;SDS011;40963;52.168;21.296;2023-08-06T12:02:43;14.20;;;4.60;;
55063;SDS011;40963;52.168;21.296;2023-08-06T12:05:10;10.85;;;4.35;;
55063;SDS011;40963;52.168;21.296;2023-08-06T12:07:40;9.07;;;3.90;;
55063;SDS011;40963;52.168;21.296;2023-08-06T12:10:11;8.27;;;4.95;;
55063;SDS011;40963;52.168;21.296;2023-08-06T12:12:38;9.73;;;4.60;;
55063;SDS011;40963;52.168;21.296;2023-08-06T12:15:04;6.75;;;4.57;;
55063;SDS011;40963;52.168;21.296;2023-08-06T12:17:31;7.78;;;4.40;;
55063;SDS011;40963;52.168;21.296;2023-08-06T12:19:57;7.43;;;4.38;;
55063;SDS011;40963;52.168;21.296;2023-08-06T12:22:23;6.28;;;4.50;;
55063;SDS011;40963;52.168;21.296;2023-08-06T12:24:48;5.05;;;4.53;;
55063;SDS011;40963;52.168;21.296;2023-08-06T12:27:14;7.53;;;4.60;;
55063;SDS011;40963;52.168;21.296;2023-08-06T12:29:48;6.65;;;4.60;;
55063;SDS011;40963;52.168;21.296;2023-08-06T12:32:14;5.13;;;4.55;;
55063;SDS011;40963;52.168;21.296;2023-08-06T12:34:40;9.10;;;4.50;;
55063;SDS011;40963;52.168;21.296;2023-08-06T12:37:07;7.00;;;4.82;;
55063;SDS011;40963;52.168;21.296;2023-08-06T12:39:34;5.10;;;4.60;;
55063;SDS011;40963;52.168;21.296;2023-08-06T12:42:04;7.95;;;4.57;;
55063;SDS011;40963;52.168;21.296;2023-08-06T12:44:30;5.20;;;4.40;;
55063;SDS011;40963;52.168;21.296;2023-08-06T12:46:56;9.38;;;4.97;;
55063;SDS011;40963;52.168;21.296;2023-08-06T12:49:22;7.63;;;4.70;;
55063;SDS011;40963;52.168;21.296;2023-08-06T12:51:48;10.70;;;4.75;;
55063;SDS011;40963;52.168;21.296;2023-08-06T12:54:16;9.50;;;4.82;;
55063;SDS011;40963;52.168;21.296;2023-08-06T12:56:42;6.47;;;4.80;;
55063;SDS011;40963;52.168;21.296;2023-08-06T12:59:09;9.75;;;4.78;;
55063;SDS011;40963;52.168;21.296;2023-08-06T13:01:34;8.45;;;4.97;;
55063;SDS011;40963;52.168;21.296;2023-08-06T13:04:00;8.43;;;4.93;;
55063;SDS011;40963;52.168;21.296;2023-08-06T13:06:26;5.82;;;4.75;;
55063;SDS011;40963;52.168;21.296;2023-08-06T13:08:51;9.77;;;5.53;;
55063;SDS011;40963;52.168;21.296;2023-08-06T13:11:17;7.35;;;5.00;;
55063;SDS011;40963;52.168;21.296;2023-08-06T13:13:44;11.15;;;4.97;;
55063;SDS011;40963;52.168;21.296;2023-08-06T13:16:09;5.30;;;4.80;;
55063;SDS011;40963;52.168;21.296;2023-08-06T13:18:35;10.25;;;4.85;;
55063;SDS011;40963;52.168;21.296;2023-08-06T13:21:00;5.07;;;4.20;;
55063;SDS011;40963;52.168;21.296;2023-08-06T13:23:26;4.70;;;4.22;;
55063;SDS011;40963;52.168;21.296;2023-08-06T13:25:53;4.50;;;4.13;;
55063;SDS011;40963;52.168;21.296;2023-08-06T13:28:19;6.68;;;4.00;;
55063;SDS011;40963;52.168;21.296;2023-08-06T13:30:45;5.00;;;3.42;;
55063;SDS011;40963;52.168;21.296;2023-08-06T13:33:11;3.88;;;3.58;;
55063;SDS011;40963;52.168;21.296;2023-08-06T13:35:37;6.80;;;3.47;;
55063;SDS011;40963;52.168;21.296;2023-08-06T13:38:03;3.95;;;3.65;;
55063;SDS011;40963;52.168;21.296;2023-08-06T13:40:29;3.20;;;3.00;;
55063;SDS011;40963;52.168;21.296;2023-08-06T13:42:57;3.75;;;3.20;;
55063;SDS011;40963;52.168;21.296;2023-08-06T13:45:23;4.88;;;3.72;;
55063;SDS011;40963;52.168;21.296;2023-08-06T13:47:48;6.38;;;3.35;;
55063;SDS011;40963;52.168;21.296;2023-08-06T13:50:14;4.28;;;3.88;;
55063;SDS011;40963;52.168;21.296;2023-08-06T13:52:40;4.03;;;3.47;;
55063;SDS011;40963;52.168;21.296;2023-08-06T13:55:06;4.20;;;3.80;;
55063;SDS011;40963;52.168;21.296;2023-08-06T13:57:32;6.63;;;3.90;;
55063;SDS011;40963;52.168;21.296;2023-08-06T13:59:58;4.57;;;3.88;;
55063;SDS011;40963;52.168;21.296;2023-08-06T14:02:24;4.45;;;3.88;;
55063;SDS011;40963;52.168;21.296;2023-08-06T14:04:50;4.18;;;3.75;;
55063;SDS011;40963;52.168;21.296;2023-08-06T14:07:17;7.10;;;3.83;;
55063;SDS011;40963;52.168;21.296;2023-08-06T14:09:42;3.70;;;3.40;;
55063;SDS011;40963;52.168;21.296;2023-08-06T14:12:09;5.53;;;3.63;;
55063;SDS011;40963;52.168;21.296;2023-08-06T14:14:35;4.88;;;3.53;;
55063;SDS011;40963;52.168;21.296;2023-08-06T14:17:00;4.82;;;3.28;;
55063;SDS011;40963;52.168;21.296;2023-08-06T14:19:26;4.50;;;3.13;;
55063;SDS011;40963;52.168;21.296;2023-08-06T14:21:52;3.38;;;3.10;;
55063;SDS011;40963;52.168;21.296;2023-08-06T14:24:18;6.70;;;3.55;;
55063;SDS011;40963;52.168;21.296;2023-08-06T14:26:44;3.60;;;3.30;;